createdAt,value
2022-12-20T00:00:20.790Z,91
2022-12-20T00:02:20.707Z,91
2022-12-20T00:04:20.997Z,91
2022-12-20T00:06:18.669Z,91
2022-12-20T00:08:21.024Z,91
2022-12-20T00:10:17.830Z,91
2022-12-20T00:12:18.105Z,91
2022-12-20T00:14:19.532Z,91
2022-12-20T00:16:18.883Z,91
2022-12-20T00:18:19.653Z,91
2022-12-20T00:20:23.742Z,91
2022-12-20T00:22:21.023Z,91
2022-12-20T00:24:25.782Z,91
2022-12-20T00:26:17.639Z,91
2022-12-20T00:28:21.164Z,91
2022-12-20T00:30:18.439Z,91
2022-12-20T00:32:21.703Z,91
2022-12-20T00:34:20.447Z,91
2022-12-20T00:36:17.721Z,91
2022-12-20T00:38:18.525Z,91
2022-12-20T00:40:20.347Z,90
2022-12-20T00:42:19.940Z,90
2022-12-20T00:44:15.358Z,90
2022-12-20T00:46:19.481Z,90
2022-12-20T00:48:17.539Z,90
2022-12-20T00:50:17.458Z,90
2022-12-20T00:52:16.792Z,90
2022-12-20T00:54:17.705Z,90
2022-12-20T00:56:18.954Z,90
2022-12-20T00:58:19.343Z,90
2022-12-20T01:00:20.623Z,90
2022-12-20T01:02:17.788Z,90
2022-12-20T01:04:19.330Z,90
2022-12-20T01:06:14.981Z,90
2022-12-20T01:08:16.700Z,90
2022-12-20T01:10:17.703Z,90
2022-12-20T01:12:18.061Z,90
2022-12-20T01:14:15.356Z,90
2022-12-20T01:16:17.728Z,90
2022-12-20T01:18:20.022Z,91
2022-12-20T01:20:21.071Z,91
2022-12-20T01:22:17.637Z,91
2022-12-20T01:24:18.007Z,91
2022-12-20T01:26:17.667Z,91
2022-12-20T01:28:22.683Z,91
2022-12-20T01:30:21.069Z,91
2022-12-20T01:32:17.737Z,91
2022-12-20T01:34:17.671Z,91
2022-12-20T01:36:20.227Z,91
2022-12-20T01:38:15.346Z,91
2022-12-20T01:40:20.778Z,91
2022-12-20T01:42:20.766Z,91
2022-12-20T01:44:19.954Z,91
2022-12-20T01:46:20.283Z,91
2022-12-20T01:48:18.844Z,90
2022-12-20T01:50:18.464Z,90
2022-12-20T01:52:20.896Z,90
2022-12-20T01:54:20.930Z,91
2022-12-20T01:56:18.482Z,91
2022-12-20T01:58:24.215Z,91
2022-12-20T02:00:20.611Z,91
2022-12-20T02:02:20.028Z,91
2022-12-20T02:04:20.989Z,91
2022-12-20T02:06:20.965Z,90
2022-12-20T02:08:19.148Z,90
2022-12-20T02:10:17.962Z,91
2022-12-20T02:12:20.893Z,91
2022-12-20T02:14:23.805Z,91
2022-12-20T02:16:21.042Z,91
2022-12-20T02:18:19.143Z,91
2022-12-20T02:20:18.420Z,91
2022-12-20T02:22:19.045Z,91
2022-12-20T02:24:23.579Z,91
2022-12-20T02:26:20.996Z,91
2022-12-20T02:28:21.271Z,91
2022-12-20T02:30:18.483Z,91
2022-12-20T02:32:20.327Z,91
2022-12-20T02:36:17.756Z,91
2022-12-20T02:38:15.353Z,91
2022-12-20T02:40:19.463Z,91
2022-12-20T02:42:15.323Z,91
2022-12-20T02:44:19.744Z,91
2022-12-20T02:46:20.920Z,91
2022-12-20T02:48:21.287Z,91
2022-12-20T02:50:21.122Z,91
2022-12-20T02:52:20.885Z,91
2022-12-20T02:54:23.655Z,91
2022-12-20T02:56:20.853Z,91
2022-12-20T02:58:17.835Z,91
2022-12-20T03:00:19.966Z,91
2022-12-20T03:02:19.584Z,91
2022-12-20T03:04:17.757Z,91
2022-12-20T03:06:17.753Z,91
2022-12-20T03:08:17.907Z,91
2022-12-20T03:10:18.644Z,91
2022-12-20T03:12:20.799Z,91
2022-12-20T03:14:21.030Z,91
2022-12-20T03:16:21.060Z,91
2022-12-20T03:18:17.827Z,91
2022-12-20T03:20:15.479Z,91
2022-12-20T03:22:18.105Z,91
2022-12-20T03:24:17.789Z,91
2022-12-20T03:26:20.921Z,91
2022-12-20T03:28:24.431Z,91
2022-12-20T03:30:17.563Z,91
2022-12-20T03:32:18.905Z,91
2022-12-20T03:34:24.336Z,91
2022-12-20T03:36:21.054Z,91
2022-12-20T03:38:21.122Z,91
2022-12-20T03:40:18.260Z,91
2022-12-20T03:42:18.126Z,91
2022-12-20T03:44:17.810Z,91
2022-12-20T03:46:15.531Z,91
2022-12-20T03:48:21.123Z,91
2022-12-20T03:50:20.043Z,91
2022-12-20T03:52:22.550Z,91
2022-12-20T03:54:24.157Z,91
2022-12-20T03:56:17.726Z,91
2022-12-20T03:58:19.029Z,91
2022-12-20T04:00:19.704Z,91
2022-12-20T04:02:17.948Z,91
2022-12-20T04:04:20.940Z,91
2022-12-20T04:06:17.733Z,91
2022-12-20T04:08:20.984Z,91
2022-12-20T04:10:17.687Z,91
2022-12-20T04:12:19.861Z,91
2022-12-20T04:14:18.133Z,91
2022-12-20T04:16:17.949Z,91
2022-12-20T04:18:18.497Z,91
2022-12-20T04:20:19.379Z,91
2022-12-20T04:22:18.052Z,91
2022-12-20T04:24:15.141Z,91
2022-12-20T04:26:16.921Z,91
2022-12-20T04:28:20.778Z,91
2022-12-20T04:30:18.150Z,91
2022-12-20T04:32:19.938Z,91
2022-12-20T04:34:19.410Z,91
2022-12-20T04:36:21.138Z,91
2022-12-20T04:38:18.662Z,91
2022-12-20T04:40:17.978Z,91
2022-12-20T04:42:20.804Z,91
2022-12-20T04:44:17.681Z,91
2022-12-20T04:46:17.840Z,91
2022-12-20T04:48:46.520Z,91
2022-12-20T04:50:17.711Z,91
2022-12-20T04:52:19.776Z,91
2022-12-20T04:54:17.755Z,91
2022-12-20T04:56:18.902Z,91
2022-12-20T04:58:24.111Z,91
2022-12-20T05:00:19.730Z,91
2022-12-20T05:02:18.545Z,91
2022-12-20T05:04:17.695Z,91
2022-12-20T05:06:19.908Z,91
2022-12-20T05:08:21.131Z,91
2022-12-20T05:10:20.316Z,91
2022-12-20T05:12:20.947Z,91
2022-12-20T05:14:24.087Z,91
2022-12-20T05:16:17.787Z,91
2022-12-20T05:18:18.483Z,91
2022-12-20T05:20:17.658Z,91
2022-12-20T05:22:18.107Z,91
2022-12-20T05:24:17.756Z,91
2022-12-20T05:26:18.189Z,91
2022-12-20T05:28:18.424Z,91
2022-12-20T05:30:19.536Z,91
2022-12-20T05:32:18.708Z,91
2022-12-20T05:34:17.202Z,91
2022-12-20T05:36:17.628Z,91
2022-12-20T05:38:19.329Z,91
2022-12-20T05:40:18.336Z,91
2022-12-20T05:42:20.832Z,91
2022-12-20T05:44:18.622Z,91
2022-12-20T05:46:20.009Z,91
2022-12-20T05:48:20.306Z,91
2022-12-20T05:50:21.341Z,91
2022-12-20T05:52:19.385Z,91
2022-12-20T05:54:19.294Z,91
2022-12-20T05:56:17.836Z,91
2022-12-20T05:58:19.599Z,91
2022-12-20T06:00:17.722Z,91
2022-12-20T06:02:17.972Z,91
2022-12-20T06:04:21.052Z,91
2022-12-20T06:06:19.974Z,91
2022-12-20T06:08:20.964Z,91
2022-12-20T06:10:19.511Z,91
2022-12-20T06:12:17.725Z,91
2022-12-20T06:14:19.909Z,91
2022-12-20T06:16:19.138Z,91
2022-12-20T06:18:21.264Z,91
2022-12-20T06:20:21.217Z,91
2022-12-20T06:22:24.002Z,91
2022-12-20T06:24:18.230Z,91
2022-12-20T06:26:17.563Z,91
2022-12-20T06:28:18.611Z,91
2022-12-20T06:30:20.910Z,91
2022-12-20T06:32:17.819Z,91
2022-12-20T06:34:17.935Z,91
2022-12-20T06:36:19.044Z,91
2022-12-20T06:38:18.115Z,91
2022-12-20T06:40:17.584Z,91
2022-12-20T06:42:20.772Z,91
2022-12-20T06:44:20.986Z,91
2022-12-20T06:46:20.790Z,91
2022-12-20T06:48:18.972Z,91
2022-12-20T06:50:18.102Z,91
2022-12-20T06:52:17.567Z,91
2022-12-20T06:54:21.030Z,91
2022-12-20T06:56:19.107Z,91
2022-12-20T06:58:19.711Z,91
2022-12-20T07:00:24.415Z,91
2022-12-20T07:02:27.075Z,91
2022-12-20T07:04:19.943Z,91
2022-12-20T07:06:15.413Z,91
2022-12-20T07:08:17.605Z,91
2022-12-20T07:10:17.720Z,91
2022-12-20T07:12:21.118Z,91
2022-12-20T07:14:19.827Z,91
2022-12-20T07:16:17.803Z,91
2022-12-20T07:18:15.936Z,90
2022-12-20T07:20:19.443Z,90
2022-12-20T07:22:20.334Z,90
2022-12-20T07:26:23.811Z,90
2022-12-20T07:28:20.888Z,90
2022-12-20T07:30:19.074Z,90
2022-12-20T07:32:18.217Z,90
2022-12-20T07:34:18.108Z,90
2022-12-20T07:36:15.073Z,90
2022-12-20T07:38:17.751Z,90
2022-12-20T07:40:15.443Z,90
2022-12-20T07:42:18.511Z,90
2022-12-20T07:44:20.990Z,90
2022-12-20T07:46:19.522Z,90
2022-12-20T07:48:21.901Z,90
2022-12-20T07:50:17.713Z,90
2022-12-20T07:52:18.543Z,90
2022-12-20T07:54:17.809Z,90
2022-12-20T07:56:21.008Z,90
2022-12-20T07:58:19.397Z,90
2022-12-20T08:00:18.797Z,90
2022-12-20T08:02:18.570Z,90
2022-12-20T08:04:18.927Z,90
2022-12-20T08:06:21.081Z,90
2022-12-20T08:08:19.940Z,90
2022-12-20T08:10:18.449Z,90
2022-12-20T08:12:19.906Z,90
2022-12-20T08:14:20.963Z,90
2022-12-20T08:16:20.022Z,90
2022-12-20T08:18:19.987Z,90
2022-12-20T08:20:17.737Z,89
2022-12-20T08:22:23.864Z,89
2022-12-20T08:24:17.760Z,89
2022-12-20T08:26:19.577Z,89
2022-12-20T08:28:20.796Z,89
2022-12-20T08:30:16.876Z,89
2022-12-20T08:34:17.779Z,89
2022-12-20T08:36:17.803Z,89
2022-12-20T08:38:18.932Z,89
2022-12-20T08:40:19.084Z,89
2022-12-20T08:42:21.290Z,89
2022-12-20T08:44:17.709Z,89
2022-12-20T08:46:20.818Z,89
2022-12-20T08:48:19.488Z,88
2022-12-20T08:50:21.199Z,89
2022-12-20T08:52:17.788Z,88
2022-12-20T08:54:18.017Z,88
2022-12-20T08:56:17.726Z,88
2022-12-20T08:58:20.254Z,88
2022-12-20T09:00:19.925Z,87
2022-12-20T09:04:17.821Z,86
2022-12-20T09:06:16.978Z,87
2022-12-20T09:08:19.064Z,87
2022-12-20T09:10:19.407Z,87
2022-12-20T09:12:20.904Z,86
2022-12-20T09:14:23.981Z,85
2022-12-20T09:16:20.727Z,85
2022-12-20T09:18:20.978Z,85
2022-12-20T09:20:20.923Z,85
2022-12-20T09:22:19.436Z,85
2022-12-20T09:24:19.565Z,86
2022-12-20T09:26:15.062Z,86
2022-12-20T09:28:17.743Z,85
2022-12-20T09:30:19.896Z,85
2022-12-20T09:34:18.880Z,85
2022-12-20T09:36:15.473Z,86
2022-12-20T09:38:20.968Z,85
2022-12-20T09:40:19.918Z,85
2022-12-20T09:42:18.561Z,85
2022-12-20T09:44:18.254Z,85
2022-12-20T09:46:20.506Z,85
2022-12-20T09:50:20.526Z,85
2022-12-20T09:52:16.802Z,85
2022-12-20T09:54:19.637Z,85
2022-12-20T09:56:19.982Z,85
2022-12-20T09:58:17.268Z,86
2022-12-20T10:00:18.640Z,86
2022-12-20T10:02:44.284Z,86
2022-12-20T10:04:18.819Z,86
2022-12-20T10:06:17.845Z,85
2022-12-20T10:08:19.252Z,85
2022-12-20T10:10:21.561Z,85
2022-12-20T10:12:17.993Z,86
2022-12-20T10:14:19.529Z,85
2022-12-20T10:16:18.425Z,86
2022-12-20T10:18:20.404Z,86
2022-12-20T10:20:19.111Z,85
2022-12-20T10:22:19.262Z,85
2022-12-20T10:24:24.650Z,84
2022-12-20T10:26:21.308Z,85
2022-12-20T10:28:18.948Z,84
2022-12-20T10:32:17.816Z,85
2022-12-20T10:34:17.945Z,84
2022-12-20T10:36:20.063Z,84
2022-12-20T10:38:17.946Z,84
2022-12-20T10:40:17.972Z,84
2022-12-20T10:42:16.592Z,84
2022-12-20T10:44:15.155Z,84
2022-12-20T10:46:20.345Z,85
2022-12-20T10:48:17.260Z,85
2022-12-20T10:50:16.527Z,85
2022-12-20T10:54:20.061Z,85
2022-12-20T10:56:20.208Z,85
2022-12-20T10:58:21.025Z,85
2022-12-20T11:00:21.495Z,85
2022-12-20T11:02:18.384Z,85
2022-12-20T11:04:17.644Z,85
2022-12-20T11:06:17.940Z,85
2022-12-20T11:08:42.944Z,85
2022-12-20T11:10:24.790Z,85
2022-12-20T11:12:19.709Z,85
2022-12-20T11:14:21.143Z,85
2022-12-20T11:16:15.487Z,85
2022-12-20T11:18:20.092Z,85
2022-12-20T11:20:19.638Z,85
2022-12-20T11:22:17.929Z,85
2022-12-20T11:24:17.915Z,85
2022-12-20T11:26:15.461Z,85
2022-12-20T11:28:18.804Z,85
2022-12-20T11:30:17.937Z,85
2022-12-20T11:32:20.174Z,85
2022-12-20T11:34:17.931Z,85
2022-12-20T11:36:17.280Z,85
2022-12-20T11:38:21.087Z,85
2022-12-20T11:40:20.022Z,85
2022-12-20T11:42:20.129Z,85
2022-12-20T11:44:25.603Z,85
2022-12-20T11:46:18.758Z,85
2022-12-20T11:48:17.991Z,85
2022-12-20T11:50:21.030Z,85
2022-12-20T11:52:21.183Z,84
2022-12-20T11:54:20.091Z,84
2022-12-20T11:56:21.357Z,84
2022-12-20T11:58:20.496Z,84
2022-12-20T12:00:19.586Z,84
2022-12-20T12:02:19.746Z,84
2022-12-20T12:04:19.569Z,84
2022-12-20T12:06:16.585Z,84
2022-12-20T12:08:19.592Z,85
2022-12-20T12:10:17.954Z,85
2022-12-20T12:12:20.308Z,85
2022-12-20T12:14:17.237Z,84
2022-12-20T12:16:20.039Z,84
2022-12-20T12:18:17.922Z,84
2022-12-20T12:20:17.040Z,84
2022-12-20T12:22:17.975Z,84
2022-12-20T12:26:19.929Z,84
2022-12-20T12:28:17.872Z,84
2022-12-20T12:30:16.986Z,84
2022-12-20T12:32:17.925Z,84
2022-12-20T12:34:19.174Z,84
2022-12-20T12:36:18.056Z,84
2022-12-20T12:38:20.046Z,84
2022-12-20T12:40:24.296Z,84
2022-12-20T12:42:19.557Z,84
2022-12-20T12:44:17.929Z,84
2022-12-20T12:46:19.288Z,84
2022-12-20T12:48:17.659Z,84
2022-12-20T12:50:16.924Z,84
2022-12-20T12:52:16.971Z,84
2022-12-20T12:54:21.472Z,84
2022-12-20T12:56:42.431Z,84
2022-12-20T12:58:24.115Z,84
2022-12-20T13:00:18.665Z,84
2022-12-20T13:02:21.348Z,84
2022-12-20T13:04:18.176Z,84
2022-12-20T13:06:18.562Z,84
2022-12-20T13:08:20.163Z,84
2022-12-20T13:10:19.428Z,84
2022-12-20T13:12:21.181Z,84
2022-12-20T13:14:21.194Z,84
2022-12-20T13:16:18.540Z,84
2022-12-20T13:18:18.197Z,84
2022-12-20T13:20:18.264Z,84
2022-12-20T13:22:17.625Z,84
2022-12-20T13:24:17.190Z,84
2022-12-20T13:26:17.927Z,84
2022-12-20T13:28:19.678Z,84
2022-12-20T13:30:21.311Z,85
2022-12-20T13:32:18.281Z,85
2022-12-20T13:34:19.814Z,85
2022-12-20T13:36:15.538Z,85
2022-12-20T13:38:21.596Z,86
2022-12-20T13:40:17.952Z,86
2022-12-20T13:42:19.217Z,86
2022-12-20T13:44:18.014Z,86
2022-12-20T13:46:17.369Z,86
2022-12-20T13:48:19.088Z,86
2022-12-20T13:50:17.701Z,86
2022-12-20T13:52:19.261Z,86
2022-12-20T13:54:21.734Z,86
2022-12-20T13:56:18.185Z,86
2022-12-20T13:58:21.534Z,86
2022-12-20T14:00:19.171Z,87
2022-12-20T14:02:18.345Z,87
2022-12-20T14:04:18.337Z,87
2022-12-20T14:06:22.988Z,87
2022-12-20T14:08:19.240Z,87
2022-12-20T14:10:17.226Z,88
2022-12-20T14:12:23.402Z,88
2022-12-20T14:14:19.138Z,88
2022-12-20T14:16:19.288Z,88
2022-12-20T14:18:20.575Z,88
2022-12-20T14:20:18.705Z,88
2022-12-20T14:22:18.028Z,88
2022-12-20T14:24:19.707Z,88
2022-12-20T14:26:17.961Z,88
2022-12-20T14:28:20.059Z,88
2022-12-20T14:30:18.238Z,87
2022-12-20T14:32:18.354Z,88
2022-12-20T14:34:24.501Z,88
2022-12-20T14:36:18.031Z,88
2022-12-20T14:38:21.223Z,88
2022-12-20T14:40:19.622Z,88
2022-12-20T14:42:18.227Z,88
2022-12-20T14:44:18.468Z,88
2022-12-20T14:46:18.460Z,87
2022-12-20T14:48:20.579Z,87
2022-12-20T14:50:15.554Z,87
2022-12-20T14:52:18.028Z,87
2022-12-20T14:56:17.062Z,88
2022-12-20T14:58:18.096Z,88
2022-12-20T15:00:19.509Z,88
2022-12-20T15:02:20.366Z,89
2022-12-20T15:04:21.683Z,89
2022-12-20T15:06:21.884Z,89
2022-12-20T15:08:19.169Z,89
2022-12-20T15:10:18.922Z,89
2022-12-20T15:12:21.468Z,89
2022-12-20T15:14:21.451Z,90
2022-12-20T15:16:17.790Z,89
2022-12-20T15:18:18.034Z,90
2022-12-20T15:20:18.024Z,90
2022-12-20T15:22:17.841Z,90
2022-12-20T15:24:21.180Z,90
2022-12-20T15:26:17.993Z,90
2022-12-20T15:28:18.443Z,89
2022-12-20T15:30:17.372Z,89
2022-12-20T15:34:20.217Z,89
2022-12-20T15:36:18.683Z,90
2022-12-20T15:38:17.368Z,90
2022-12-20T15:40:18.746Z,90
2022-12-20T15:42:19.119Z,90
2022-12-20T15:44:20.545Z,90
2022-12-20T15:46:15.734Z,90
2022-12-20T15:48:17.965Z,90
2022-12-20T15:50:21.246Z,90
2022-12-20T15:52:19.677Z,90
2022-12-20T15:54:18.860Z,90
2022-12-20T15:56:24.201Z,90
2022-12-20T15:58:18.137Z,90
2022-12-20T16:00:18.349Z,90
2022-12-20T16:02:19.687Z,90
2022-12-20T16:04:21.350Z,90
2022-12-20T16:06:21.281Z,90
2022-12-20T16:08:21.381Z,90
2022-12-20T16:10:17.216Z,90
2022-12-20T16:12:18.908Z,90
2022-12-20T16:14:18.258Z,90
2022-12-20T16:16:20.722Z,90
2022-12-20T16:18:18.217Z,90
2022-12-20T16:20:18.211Z,90
2022-12-20T16:22:19.299Z,90
2022-12-20T16:24:18.280Z,90
2022-12-20T16:26:17.258Z,90
2022-12-20T16:28:19.657Z,90
2022-12-20T16:30:21.309Z,90
2022-12-20T16:32:18.284Z,90
2022-12-20T16:34:21.447Z,90
2022-12-20T16:36:18.082Z,90
2022-12-20T16:38:18.287Z,90
2022-12-20T16:40:15.536Z,90
2022-12-20T16:42:18.004Z,90
2022-12-20T16:44:20.827Z,90
2022-12-20T16:46:17.963Z,90
2022-12-20T16:48:15.198Z,90
2022-12-20T16:50:16.954Z,90
2022-12-20T16:52:20.080Z,90
2022-12-20T16:54:21.359Z,90
2022-12-20T16:56:18.560Z,90
2022-12-20T16:58:18.224Z,90
2022-12-20T17:00:19.219Z,90
2022-12-20T17:02:19.228Z,90
2022-12-20T17:04:18.499Z,90
2022-12-20T17:06:17.368Z,91
2022-12-20T17:08:51.433Z,90
2022-12-20T17:10:20.709Z,90
2022-12-20T17:12:19.119Z,91
2022-12-20T17:14:20.030Z,91
2022-12-20T17:16:20.264Z,91
2022-12-20T17:18:19.874Z,91
2022-12-20T17:24:23.623Z,90
2022-12-20T17:26:38.885Z,90
2022-12-20T17:28:41.131Z,90
2022-12-20T17:30:44.369Z,90
2022-12-20T17:32:41.664Z,90
2022-12-20T17:34:43.837Z,90
2022-12-20T17:36:44.399Z,90
2022-12-20T17:38:44.307Z,91
2022-12-20T17:40:41.613Z,90
2022-12-20T17:42:41.940Z,90
2022-12-20T17:44:43.260Z,90
2022-12-20T17:46:43.352Z,90
2022-12-20T17:48:43.828Z,90
2022-12-20T17:50:43.604Z,90
2022-12-20T17:52:44.576Z,90
2022-12-20T17:54:43.899Z,90
2022-12-20T17:56:41.874Z,90
2022-12-20T17:58:41.931Z,90
2022-12-20T18:00:41.496Z,90
2022-12-20T18:02:44.891Z,90
2022-12-20T18:04:43.787Z,89
2022-12-20T18:06:43.416Z,89
2022-12-20T18:08:39.676Z,89
2022-12-20T18:10:42.808Z,89
2022-12-20T18:14:42.657Z,89
2022-12-20T18:18:41.121Z,88
2022-12-20T18:20:41.566Z,88
2022-12-20T18:22:41.490Z,88
2022-12-20T18:26:43.321Z,88
2022-12-20T18:28:42.449Z,88
2022-12-20T18:30:44.357Z,89
2022-12-20T18:32:44.203Z,89
2022-12-20T18:34:41.567Z,89
2022-12-20T18:36:44.761Z,89
2022-12-20T18:38:41.717Z,89
2022-12-20T18:40:45.140Z,89
2022-12-20T18:44:40.931Z,90
2022-12-20T18:46:41.690Z,90
2022-12-20T18:48:41.957Z,90
2022-12-20T18:50:39.229Z,90
2022-12-20T18:52:41.514Z,90
2022-12-20T18:54:44.572Z,90
2022-12-20T18:56:45.015Z,90
2022-12-20T18:58:41.860Z,90
2022-12-20T19:00:44.641Z,90
2022-12-20T19:02:43.259Z,90
2022-12-20T19:04:41.539Z,90
2022-12-20T19:06:43.012Z,90
2022-12-20T19:08:45.068Z,90
2022-12-20T19:10:44.992Z,90
2022-12-20T19:12:41.561Z,90
2022-12-20T19:14:41.034Z,90
2022-12-20T19:18:42.400Z,90
2022-12-20T19:24:44.697Z,89
2022-12-20T19:26:41.937Z,89
2022-12-20T19:30:42.877Z,90
2022-12-20T19:32:43.394Z,90
2022-12-20T19:34:44.320Z,90
2022-12-20T19:36:44.674Z,90
2022-12-20T19:38:41.613Z,90
2022-12-20T19:40:44.323Z,90
2022-12-20T19:42:44.011Z,90
2022-12-20T19:44:39.140Z,90
2022-12-20T19:48:41.516Z,90
2022-12-20T19:50:44.055Z,90
2022-12-20T19:54:41.604Z,90
2022-12-20T19:56:42.729Z,90
2022-12-20T19:58:44.327Z,90
2022-12-20T20:00:43.292Z,90
2022-12-20T20:02:44.662Z,90
2022-12-20T20:06:41.638Z,90
2022-12-20T20:08:43.313Z,90
2022-12-20T20:10:39.148Z,90
2022-12-20T20:12:44.934Z,90
2022-12-20T20:14:43.190Z,90
2022-12-20T20:16:41.925Z,90
2022-12-20T20:18:44.551Z,90
2022-12-20T20:20:41.948Z,90
2022-12-20T20:22:42.175Z,90
2022-12-20T20:24:41.803Z,90
2022-12-20T20:26:44.780Z,90
2022-12-20T20:28:45.631Z,90
2022-12-20T20:30:43.911Z,90
2022-12-20T20:32:44.125Z,90
2022-12-20T20:34:42.224Z,90
2022-12-20T20:36:43.239Z,90
2022-12-20T20:38:43.085Z,90
2022-12-20T20:40:44.505Z,90
2022-12-20T20:42:42.357Z,90
2022-12-20T20:44:41.908Z,90
2022-12-20T20:48:43.097Z,90
2022-12-20T20:50:41.132Z,90
2022-12-20T20:52:43.321Z,90
2022-12-20T20:54:43.802Z,90
2022-12-20T20:56:43.555Z,90
2022-12-20T20:58:44.699Z,90
2022-12-20T21:02:44.686Z,90
2022-12-20T21:04:53.498Z,90
2022-12-20T21:06:41.354Z,90
2022-12-20T21:08:44.447Z,90
2022-12-20T21:10:41.671Z,90
2022-12-20T21:12:43.719Z,90
2022-12-20T21:15:12.511Z,90
2022-12-20T21:16:44.833Z,90
2022-12-20T21:18:42.451Z,90
2022-12-20T21:20:42.733Z,90
2022-12-20T21:22:40.835Z,90
2022-12-20T21:24:44.786Z,90
2022-12-20T21:26:44.939Z,90
2022-12-20T21:28:41.672Z,90
2022-12-20T21:32:44.099Z,90
2022-12-20T21:34:42.882Z,90
2022-12-20T21:36:44.694Z,90
2022-12-20T21:38:41.489Z,91
2022-12-20T21:40:44.874Z,91
2022-12-20T21:42:43.659Z,91
2022-12-20T21:44:41.620Z,90
2022-12-20T21:46:41.465Z,90
2022-12-20T21:50:43.665Z,90
2022-12-20T21:52:41.038Z,90
2022-12-20T21:54:41.582Z,90
2022-12-20T21:58:44.752Z,91
2022-12-20T22:00:48.316Z,90
2022-12-20T22:02:41.756Z,90
2022-12-20T22:04:38.777Z,90
2022-12-20T22:06:42.970Z,90
2022-12-20T22:08:42.006Z,90
2022-12-20T22:10:41.558Z,90
2022-12-20T22:12:42.883Z,90
2022-12-20T22:14:41.240Z,90
2022-12-20T22:18:41.602Z,90
2022-12-20T22:20:41.636Z,91
2022-12-20T22:22:43.209Z,91
2022-12-20T22:24:41.581Z,91
2022-12-20T22:26:41.655Z,91
2022-12-20T22:28:43.078Z,91
2022-12-20T22:30:41.939Z,91
2022-12-20T22:32:44.738Z,90
2022-12-20T22:36:44.753Z,91
2022-12-20T22:38:42.281Z,91
2022-12-20T22:40:44.176Z,91
2022-12-20T22:42:39.191Z,91
2022-12-20T22:44:41.623Z,91
2022-12-20T22:48:48.334Z,91
2022-12-20T22:50:41.807Z,91
2022-12-20T22:52:43.655Z,91
2022-12-20T22:54:43.722Z,91
2022-12-20T22:56:43.726Z,91
2022-12-20T22:58:43.236Z,90
2022-12-20T23:00:42.858Z,90
2022-12-20T23:02:42.977Z,91
2022-12-20T23:04:41.888Z,91
2022-12-20T23:06:43.249Z,90
2022-12-20T23:08:42.825Z,91
2022-12-20T23:10:42.255Z,91
2022-12-20T23:12:43.247Z,91
2022-12-20T23:14:42.928Z,91
2022-12-20T23:16:44.250Z,91
2022-12-20T23:18:41.624Z,91
2022-12-20T23:20:43.834Z,91
2022-12-20T23:24:41.822Z,91
2022-12-20T23:26:44.073Z,91
2022-12-20T23:28:43.086Z,91
2022-12-20T23:30:41.620Z,91
2022-12-20T23:32:48.127Z,91
2022-12-20T23:36:41.585Z,91
2022-12-20T23:38:43.101Z,91
2022-12-20T23:40:41.804Z,91
2022-12-20T23:42:43.754Z,91
2022-12-20T23:44:44.284Z,91
2022-12-20T23:46:41.638Z,91
2022-12-20T23:48:42.405Z,91
2022-12-20T23:52:41.886Z,91
2022-12-20T23:54:46.337Z,91
2022-12-20T23:58:44.705Z,91
